Time;durP1;ratioP1;P1;durP2;ratioP2;P2;SDS_P1;SDS_P2;PMS_P1;PMS_P2;Temp;Humidity;BMP_temperature;BMP_pressure;BME280_temperature;BME280_humidity;BME280_pressure;Samples;Min_cycle;Max_cycle;Signal;HPM_P1;HPM_P2
2021/08/07 00:00:05;;;;;;;8.88;5.40;;;;;;;20.15;72.04;98400.37;1747819;81;21152;-41
2021/08/07 00:02:34;;;;;;;7.10;4.85;;;;;;;20.11;72.17;98407.22;1764721;80;20989;-41
2021/08/07 00:05:01;;;;;;;5.97;4.30;;;;;;;20.06;72.30;98409.16;1764506;80;21210;-41
2021/08/07 00:07:27;;;;;;;6.17;4.20;;;;;;;20.08;72.32;98408.89;1765266;80;21044;-41
2021/08/07 00:09:55;;;;;;;5.65;4.03;;;;;;;20.08;72.57;98409.49;1747067;80;21727;-41
2021/08/07 00:12:21;;;;;;;4.72;3.98;;;;;;;20.01;72.83;98409.73;1750418;80;21121;-41
2021/08/07 00:14:48;;;;;;;6.30;3.80;;;;;;;19.96;73.08;98408.31;1759019;80;20956;-41
2021/08/07 00:17:14;;;;;;;4.12;3.08;;;;;;;19.95;73.04;98416.39;1754010;80;21057;-41
2021/08/07 00:19:42;;;;;;;5.50;4.10;;;;;;;19.96;72.79;98418.72;1763313;80;21012;-41
2021/08/07 00:22:11;;;;;;;5.65;3.98;;;;;;;19.99;72.62;98423.95;1755439;80;20988;-41
2021/08/07 00:24:38;;;;;;;5.08;3.80;;;;;;;19.97;72.29;98424.98;1756523;81;22451;-41
2021/08/07 00:27:04;;;;;;;4.80;3.42;;;;;;;19.94;72.22;98427.27;1753624;80;21027;-41
2021/08/07 00:29:35;;;;;;;7.92;3.50;;;;;;;19.93;72.25;98429.84;1748682;81;20937;-41
2021/08/07 00:32:04;;;;;;;8.73;3.77;;;;;;;19.95;72.15;98438.41;1749955;80;21030;-41
2021/08/07 00:34:31;;;;;;;4.00;3.62;;;;;;;19.96;72.12;98437.20;1750212;81;21526;-41
2021/08/07 00:36:58;;;;;;;6.95;3.90;;;;;;;19.93;71.97;98449.88;1749578;80;21196;-42
2021/08/07 00:39:25;;;;;;;5.75;3.75;;;;;;;19.93;71.97;98454.00;1691173;82;21007;-41
2021/08/07 00:41:52;;;;;;;6.83;3.67;;;;;;;19.90;71.87;98463.13;1739039;82;21507;-41
2021/08/07 00:44:19;;;;;;;5.50;3.30;;;;;;;19.90;71.64;98463.72;1749380;82;21004;-41
2021/08/07 00:46:47;;;;;;;6.97;3.70;;;;;;;19.93;71.51;98465.61;1703268;82;21673;-41
2021/08/07 00:49:14;;;;;;;9.43;3.58;;;;;;;19.94;71.29;98468.53;1692521;82;21120;-41
2021/08/07 00:51:44;;;;;;;4.65;3.62;;;;;;;19.96;71.10;98467.46;1675653;83;20969;-41
2021/08/07 00:54:13;;;;;;;5.87;3.47;;;;;;;19.93;70.55;98460.11;1671037;85;20964;-41
2021/08/07 00:56:40;;;;;;;5.33;3.42;;;;;;;19.92;70.45;98468.19;1681835;83;21026;-41
2021/08/07 00:59:08;;;;;;;3.80;3.22;;;;;;;19.93;70.26;98470.51;1686252;83;21156;-41
2021/08/07 01:01:45;;;;;;;3.85;3.45;;;;;;;19.89;70.25;98467.11;1700968;82;21546;-41
2021/08/07 01:04:22;;;;;;;6.47;3.20;;;;;;;19.87;69.84;98482.50;1683649;85;21810;-41
2021/08/07 01:07:11;;;;;;;7.17;3.30;;;;;;;19.85;69.86;98484.91;1694261;82;21064;-41
2021/08/07 01:10:01;;;;;;;6.55;3.58;;;;;;;19.85;69.44;98492.56;1707285;82;21076;-41
2021/08/07 01:12:58;;;;;;;;;;;;;;;19.85;69.41;98495.91;1699696;82;21130;-41
2021/08/07 01:15:28;;;;;;;7.78;3.55;;;;;;;19.79;69.31;98489.45;1677658;84;21877;-41
2021/08/07 01:17:56;;;;;;;6.90;3.12;;;;;;;19.63;69.61;98490.95;1694813;82;20989;-41
2021/08/07 01:20:39;;;;;;;4.42;3.30;;;;;;;19.62;69.74;98490.17;1698232;82;21509;-41
2021/08/07 01:23:19;;;;;;;;;;;;;;;19.66;69.68;98492.20;1649773;85;21009;-41
2021/08/07 01:26:05;;;;;;;5.28;3.67;;;;;;;19.66;69.64;98487.30;1679417;83;20713;-41
2021/08/07 01:28:36;;;;;;;8.15;3.55;;;;;;;19.56;70.11;98487.80;1681721;83;21211;-41
2021/08/07 01:31:05;;;;;;;7.08;3.62;;;;;;;19.57;69.96;98492.09;1745088;80;21056;-41
2021/08/07 01:33:32;;;;;;;5.20;3.55;;;;;;;19.60;69.84;98484.36;1753663;80;21021;-41
2021/08/07 01:36:02;;;;;;;5.70;3.40;;;;;;;19.61;69.81;98479.00;1749091;80;20984;-41
2021/08/07 01:38:31;;;;;;;7.90;4.17;;;;;;;19.60;69.77;98481.61;1755646;80;21009;-41
2021/08/07 01:41:00;;;;;;;4.62;3.83;;;;;;;19.50;70.12;98481.34;1754440;80;21085;-41
2021/08/07 01:43:29;;;;;;;8.23;3.70;;;;;;;19.44;70.34;98495.45;1744552;80;21492;-41
2021/08/07 01:45:58;;;;;;;4.13;3.57;;;;;;;19.39;70.35;98498.13;1744092;80;20972;-41
2021/08/07 01:48:49;;;;;;;7.25;4.50;;;;;;;19.35;70.47;98508.46;1740704;80;21060;-42
2021/08/07 01:51:22;;;;;;;4.92;3.72;;;;;;;19.32;70.33;98505.20;1734709;82;21021;-41
2021/08/07 01:53:51;;;;;;;4.72;3.90;;;;;;;19.19;70.56;98503.05;1735705;80;21831;-41
2021/08/07 01:56:31;;;;;;;7.20;4.15;;;;;;;19.12;70.80;98497.00;1730368;80;21046;-41
2021/08/07 01:59:14;;;;;;;6.00;3.62;;;;;;;19.08;70.92;98497.86;1712189;82;21101;-41
2021/08/07 02:01:42;;;;;;;8.15;4.10;;;;;;;19.07;70.93;98510.05;1732550;80;21339;-41
2021/08/07 02:04:10;;;;;;;5.83;3.77;;;;;;;19.02;70.83;98507.09;1722295;80;21010;-41
2021/08/07 02:06:39;;;;;;;5.33;3.65;;;;;;;18.96;70.82;98507.45;1774805;80;21140;-41
2021/08/07 02:09:06;;;;;;;5.30;3.25;;;;;;;18.91;70.74;98518.98;1719002;80;20976;-41
2021/08/07 02:11:44;;;;;;;3.72;2.95;;;;;;;18.87;70.29;98516.94;1724799;80;21021;-41
2021/08/07 02:14:09;;;;;;;3.90;2.67;;;;;;;18.85;70.10;98524.83;1741375;80;21125;-41
2021/08/07 02:16:40;;;;;;;6.45;3.08;;;;;;;18.83;69.91;98518.39;1698426;82;20993;-41
2021/08/07 02:19:07;;;;;;;3.58;3.10;;;;;;;18.80;69.92;98524.77;1736453;81;21050;-41
2021/08/07 02:21:36;;;;;;;6.03;3.00;;;;;;;18.77;69.30;98524.87;1708681;82;21122;-41
2021/08/07 02:24:04;;;;;;;3.15;2.60;;;;;;;18.76;69.10;98535.67;1693391;82;21001;-41
2021/08/07 02:26:31;;;;;;;5.05;2.60;;;;;;;18.78;68.62;98535.43;1677235;83;21646;-41
2021/08/07 02:29:00;;;;;;;6.10;2.70;;;;;;;18.78;68.78;98538.77;1736722;82;21060;-41
2021/08/07 02:31:28;;;;;;;5.40;2.70;;;;;;;18.75;68.35;98541.77;1713054;82;21101;-41
2021/08/07 02:33:56;;;;;;;6.17;3.27;;;;;;;18.72;68.35;98534.41;1737394;80;20988;-41
2021/08/07 02:36:23;;;;;;;6.17;3.37;;;;;;;18.66;68.66;98536.91;1735481;82;21052;-41
2021/08/07 02:38:53;;;;;;;4.00;2.95;;;;;;;18.60;69.08;98544.13;1732951;82;21021;-41
2021/08/07 02:41:20;;;;;;;5.75;3.20;;;;;;;18.62;69.22;98556.83;1726056;82;21025;-41
2021/08/07 02:43:48;;;;;;;5.65;3.30;;;;;;;18.63;69.38;98561.72;1731357;80;21120;-41
2021/08/07 02:46:17;;;;;;;4.72;3.20;;;;;;;18.64;69.33;98560.49;1725175;82;21484;-41
2021/08/07 02:48:44;;;;;;;6.33;3.77;;;;;;;18.63;69.14;98570.73;1760457;80;21465;-41
2021/08/07 02:51:13;;;;;;;6.05;3.45;;;;;;;18.53;69.32;98568.23;1759959;80;20974;-41
2021/08/07 02:53:42;;;;;;;6.97;3.47;;;;;;;18.47;69.53;98566.60;1737225;80;21021;-41
2021/08/07 02:56:09;;;;;;;4.72;3.27;;;;;;;18.51;69.49;98570.63;1737382;80;21782;-41
2021/08/07 02:58:36;;;;;;;4.50;3.30;;;;;;;18.54;69.36;98573.92;1730134;82;20981;-41
2021/08/07 03:01:03;;;;;;;6.12;3.60;;;;;;;18.55;69.26;98573.47;1729663;82;21111;-41
2021/08/07 03:03:33;;;;;;;6.40;3.30;;;;;;;18.50;69.26;98575.33;1736680;82;21080;-41
2021/08/07 03:05:59;;;;;;;5.75;3.30;;;;;;;18.41;69.33;98578.52;1732471;82;21025;-41
2021/08/07 03:08:27;;;;;;;6.97;3.40;;;;;;;18.32;69.56;98583.25;1736345;80;21796;-41
2021/08/07 03:10:54;;;;;;;5.03;3.83;;;;;;;18.32;69.52;98586.59;1735762;80;21032;-42
2021/08/07 03:13:23;;;;;;;6.28;4.00;;;;;;;18.33;69.71;98594.41;1721095;82;21087;-41
2021/08/07 03:15:51;;;;;;;4.15;3.62;;;;;;;18.32;69.74;98585.99;1726347;82;21052;-41
2021/08/07 03:18:20;;;;;;;4.78;3.70;;;;;;;18.28;69.69;98591.40;1731526;82;21025;-41
2021/08/07 03:20:48;;;;;;;6.33;3.47;;;;;;;18.15;70.01;98592.70;1737803;80;21087;-41
2021/08/07 03:23:17;;;;;;;5.45;3.77;;;;;;;18.12;70.33;98594.31;1751715;80;21449;-41
2021/08/07 03:25:50;;;;;;;6.28;3.92;;;;;;;17.82;70.41;98556.23;1739171;80;20985;-41
2021/08/07 03:28:19;;;;;;;6.00;3.70;;;;;;;18.04;70.71;98603.92;1691069;83;21076;-41
2021/08/07 03:30:45;;;;;;;5.35;3.87;;;;;;;17.99;70.83;98607.17;1734275;82;21073;-41
2021/08/07 03:33:12;;;;;;;8.35;3.70;;;;;;;17.92;70.88;98605.95;1720511;80;21146;-41
2021/08/07 03:35:38;;;;;;;7.10;3.67;;;;;;;17.89;70.97;98610.14;1738853;80;21116;-41
2021/08/07 03:38:05;;;;;;;6.92;4.62;;;;;;;17.85;71.08;98610.23;1719259;82;21024;-41
2021/08/07 03:40:33;;;;;;;5.03;3.70;;;;;;;17.78;71.17;98615.86;1681644;84;21060;-41
2021/08/07 03:43:01;;;;;;;6.15;4.00;;;;;;;17.69;71.37;98616.45;1681273;83;21546;-41
2021/08/07 03:45:28;;;;;;;6.65;4.08;;;;;;;17.66;71.53;98622.80;1679561;84;22589;-41
2021/08/07 03:47:57;;;;;;;6.30;3.70;;;;;;;17.69;71.61;98621.16;1678969;84;21004;-41
2021/08/07 03:50:25;;;;;;;7.78;3.72;;;;;;;17.72;71.75;98625.19;1678804;84;20968;-41
2021/08/07 03:52:52;;;;;;;7.03;4.28;;;;;;;17.73;71.61;98628.11;1713368;83;21033;-41
2021/08/07 03:55:19;;;;;;;7.00;4.00;;;;;;;17.74;71.60;98632.39;1690176;84;21064;-41
2021/08/07 03:57:58;;;;;;;6.15;3.83;;;;;;;17.78;71.52;98626.23;1693256;84;21977;-41
2021/08/07 04:00:29;;;;;;;7.37;4.10;;;;;;;17.85;71.42;98627.28;1676264;84;21019;-41
2021/08/07 04:02:57;;;;;;;7.65;4.33;;;;;;;17.90;71.18;98622.66;1693271;84;21040;-41
2021/08/07 04:05:24;;;;;;;8.13;4.08;;;;;;;17.89;71.07;98621.89;1698843;84;21164;-41
2021/08/07 04:07:52;;;;;;;6.42;3.90;;;;;;;17.91;71.07;98624.22;1706153;83;21032;-41
2021/08/07 04:10:19;;;;;;;4.15;3.65;;;;;;;17.98;71.02;98615.81;1731303;80;21982;-41
2021/08/07 04:12:48;;;;;;;5.63;3.70;;;;;;;18.06;70.77;98617.96;1752840;80;21090;-41
2021/08/07 04:15:16;;;;;;;4.90;4.40;;;;;;;18.14;70.45;98623.47;1745898;80;21037;-42
2021/08/07 04:17:42;;;;;;;6.55;3.72;;;;;;;18.15;70.52;98620.87;1743179;80;21520;-41
2021/08/07 04:20:13;;;;;;;5.00;3.60;;;;;;;18.14;70.39;98620.73;1758503;80;20946;-41
2021/08/07 04:22:40;;;;;;;6.25;3.90;;;;;;;18.18;70.46;98624.75;1724500;82;21051;-41
2021/08/07 04:25:09;;;;;;;7.80;4.03;;;;;;;18.21;70.16;98633.48;1744029;80;21055;-41
2021/08/07 04:27:38;;;;;;;5.45;4.03;;;;;;;18.23;70.21;98628.36;1744318;80;21594;-41
2021/08/07 04:30:07;;;;;;;6.35;3.92;;;;;;;18.23;70.39;98629.73;1753904;80;21528;-41
2021/08/07 04:32:34;;;;;;;6.25;3.80;;;;;;;18.25;70.25;98628.69;1688037;83;20994;-41
2021/08/07 04:35:05;;;;;;;5.65;3.25;;;;;;;18.30;70.29;98626.05;1699222;83;21137;-41
2021/08/07 04:37:31;;;;;;;4.28;3.35;;;;;;;18.40;70.04;98627.74;1678997;84;20937;-42
2021/08/07 04:39:58;;;;;;;3.95;3.33;;;;;;;18.48;69.31;98627.16;1686811;82;21008;-41
2021/08/07 04:42:27;;;;;;;4.33;3.47;;;;;;;18.47;69.19;98622.09;1731045;80;21108;-42
2021/08/07 04:44:55;;;;;;;5.37;3.40;;;;;;;18.45;68.86;98627.23;1747226;80;21056;-41
2021/08/07 04:47:22;;;;;;;7.20;3.25;;;;;;;18.43;69.32;98633.17;1708107;82;21130;-41
2021/08/07 04:49:49;;;;;;;3.22;2.90;;;;;;;18.40;68.40;98642.84;1706650;82;21527;-42
2021/08/07 04:52:16;;;;;;;5.22;3.00;;;;;;;18.40;67.83;98636.75;1710068;82;21094;-41
2021/08/07 04:54:43;;;;;;;3.10;2.80;;;;;;;18.38;67.66;98638.39;1741697;81;21104;-41
2021/08/07 04:57:10;;;;;;;4.70;2.67;;;;;;;18.35;68.22;98637.89;1741788;80;21099;-41
2021/08/07 04:59:37;;;;;;;4.20;2.90;;;;;;;18.33;68.31;98642.42;1742294;81;21676;-41
2021/08/07 05:02:05;;;;;;;4.03;2.50;;;;;;;18.35;68.32;98637.89;1741162;80;20882;-41
2021/08/07 05:04:32;;;;;;;6.30;2.90;;;;;;;18.38;68.51;98635.05;1742278;81;20988;-41
2021/08/07 05:06:59;;;;;;;5.08;3.10;;;;;;;18.47;68.30;98639.34;1741261;80;21008;-41
2021/08/07 05:09:26;;;;;;;8.08;3.90;;;;;;;18.48;68.17;98641.48;1743678;80;21644;-41
2021/08/07 05:12:04;;;;;;;6.25;3.55;;;;;;;18.48;68.69;98632.65;1743079;80;21321;-41
2021/08/07 05:14:31;;;;;;;8.93;4.22;;;;;;;18.55;68.43;98631.12;1743834;80;20999;-41
2021/08/07 05:16:58;;;;;;;4.40;3.67;;;;;;;18.64;68.59;98632.65;1741653;80;21562;-41
2021/08/07 05:19:25;;;;;;;5.87;3.65;;;;;;;18.70;68.08;98629.38;1732715;82;21415;-41
2021/08/07 05:21:53;;;;;;;5.47;3.60;;;;;;;18.66;66.97;98637.13;1667152;84;21095;-41
2021/08/07 05:24:22;;;;;;;5.33;3.83;;;;;;;18.63;67.18;98637.99;1746327;80;21916;-41
2021/08/07 05:26:49;;;;;;;7.92;3.80;;;;;;;18.60;67.21;98632.57;1745152;80;21072;-41
2021/08/07 05:29:16;;;;;;;5.53;3.30;;;;;;;18.59;67.14;98646.13;1744699;82;20977;-41
2021/08/07 05:31:42;;;;;;;3.87;3.47;;;;;;;18.65;67.24;98646.55;1736265;82;21460;-41
2021/08/07 05:34:10;;;;;;;5.62;3.90;;;;;;;18.71;66.90;98647.41;1743162;80;21092;-41
2021/08/07 05:36:38;;;;;;;5.53;3.55;;;;;;;18.76;67.03;98657.88;1742590;80;21550;-41
2021/08/07 05:39:05;;;;;;;5.25;3.98;;;;;;;18.78;66.81;98660.97;1743931;80;20961;-41
2021/08/07 05:41:33;;;;;;;7.40;4.20;;;;;;;18.81;66.87;98664.99;1739893;82;20995;-41
2021/08/07 05:43:59;;;;;;;4.20;3.67;;;;;;;18.87;67.21;98669.37;1742257;80;21060;-41
2021/08/07 05:46:27;;;;;;;4.78;3.75;;;;;;;18.90;66.44;98681.63;1742596;80;21148;-41
2021/08/07 05:48:56;;;;;;;4.37;3.52;;;;;;;18.88;66.10;98670.29;1743997;80;21116;-41
2021/08/07 05:51:23;;;;;;;4.78;3.60;;;;;;;18.85;65.93;98672.53;1738936;80;21542;-41
2021/08/07 05:53:52;;;;;;;3.87;3.10;;;;;;;18.83;65.92;98678.30;1745813;80;21503;-41
2021/08/07 05:56:20;;;;;;;5.28;3.33;;;;;;;18.84;66.32;98674.33;1736266;82;21495;-41
2021/08/07 05:58:47;;;;;;;4.87;3.20;;;;;;;18.92;67.07;98674.34;1718026;82;21218;-41
2021/08/07 06:01:14;;;;;;;5.72;3.17;;;;;;;18.99;66.10;98675.52;1719802;82;21196;-41
2021/08/07 06:03:40;;;;;;;5.95;3.70;;;;;;;19.03;66.72;98670.69;1745452;80;20929;-41
2021/08/07 06:06:07;;;;;;;4.22;3.40;;;;;;;19.09;64.85;98675.84;1744448;80;21008;-41
2021/08/07 06:08:34;;;;;;;3.75;3.00;;;;;;;19.08;65.12;98679.19;1741103;80;21024;-41
2021/08/07 06:11:04;;;;;;;6.37;3.47;;;;;;;19.10;65.57;98686.41;1734772;80;21020;-42
2021/08/07 06:13:32;;;;;;;5.35;3.25;;;;;;;19.21;65.97;98675.14;1741241;80;21539;-41
2021/08/07 06:16:00;;;;;;;3.50;2.70;;;;;;;19.30;64.33;98675.28;1737923;80;21477;-41
2021/08/07 06:18:27;;;;;;;3.20;2.90;;;;;;;19.33;64.26;98682.64;1744204;80;21095;-41
2021/08/07 06:20:54;;;;;;;5.40;3.10;;;;;;;19.35;63.89;98681.62;1742568;81;20930;-41
2021/08/07 06:23:21;;;;;;;4.55;3.05;;;;;;;19.40;63.52;98682.46;1740711;80;21052;-41
2021/08/07 06:25:50;;;;;;;4.17;2.95;;;;;;;19.45;61.77;98675.69;1742292;80;21140;-41
2021/08/07 06:28:19;;;;;;;3.40;3.05;;;;;;;19.45;61.36;98687.45;1742894;80;20937;-41
2021/08/07 06:30:46;;;;;;;4.40;3.05;;;;;;;19.47;62.29;98676.78;1741068;80;21587;-41
2021/08/07 06:33:14;;;;;;;3.87;2.70;;;;;;;19.31;62.98;98644.45;1740320;80;21087;-41
2021/08/07 06:35:41;;;;;;;4.47;3.02;;;;;;;19.67;61.63;98679.97;1745123;80;21088;-41
2021/08/07 06:38:08;;;;;;;3.30;3.00;;;;;;;19.68;60.73;98687.02;1742180;80;21409;-41
2021/08/07 06:40:36;;;;;;;4.95;3.25;;;;;;;19.61;61.26;98685.83;1743398;80;21643;-41
2021/08/07 06:43:04;;;;;;;3.17;2.70;;;;;;;19.55;60.74;98693.09;1756941;80;21079;-41
2021/08/07 06:45:35;;;;;;;5.12;2.70;;;;;;;19.47;61.31;98691.91;1694249;83;21681;-41
2021/08/07 06:48:04;;;;;;;4.12;3.10;;;;;;;19.47;61.46;98689.75;1760172;80;21028;-41
2021/08/07 06:50:33;;;;;;;3.85;3.40;;;;;;;19.51;61.82;98682.17;1702979;83;21317;-41
2021/08/07 06:53:00;;;;;;;3.58;2.77;;;;;;;19.60;61.26;98685.08;1706326;84;21001;-42
2021/08/07 06:55:27;;;;;;;3.27;2.70;;;;;;;19.69;61.34;98683.06;1701884;84;20931;-42
2021/08/07 06:57:53;;;;;;;2.60;2.40;;;;;;;19.78;59.96;98692.81;1758085;81;21025;-42
2021/08/07 07:00:22;;;;;;;5.60;3.00;;;;;;;19.83;59.90;98693.66;1705726;81;21072;-42
2021/08/07 07:05:21;;;;;;;3.22;2.50;;;;;;;19.92;59.00;98696.52;1767183;79;22981;-42
2021/08/07 07:07:47;;;;;;;4.20;2.83;;;;;;;19.82;59.47;98690.13;1743427;80;20925;-42
2021/08/07 07:10:15;;;;;;;3.62;2.65;;;;;;;19.89;60.17;98690.53;1756975;81;21032;-42
2021/08/07 07:12:42;;;;;;;5.72;2.70;;;;;;;19.97;59.49;98687.73;1756865;81;20965;-42
2021/08/07 07:15:11;;;;;;;4.03;2.35;;;;;;;20.06;58.27;98685.70;1756446;80;20988;-42
2021/08/07 07:17:39;;;;;;;2.55;2.22;;;;;;;20.13;58.49;98680.77;1746903;80;21009;-42
2021/08/07 07:20:08;;;;;;;3.05;2.52;;;;;;;20.18;58.20;98684.95;1726734;83;20890;-41
2021/08/07 07:22:35;;;;;;;3.57;2.67;;;;;;;20.19;56.88;98684.48;1728137;80;21171;-42
2021/08/07 07:25:06;;;;;;;2.20;2.00;;;;;;;20.18;57.38;98698.10;1726728;83;21419;-42
2021/08/07 07:27:32;;;;;;;2.67;2.10;;;;;;;20.19;56.96;98704.35;1728069;80;20981;-42
2021/08/07 07:29:59;;;;;;;3.12;2.22;;;;;;;20.18;56.03;98705.59;1745758;80;21088;-42
2021/08/07 07:32:27;;;;;;;3.00;2.50;;;;;;;20.19;56.46;98694.12;1688124;84;21545;-42
2021/08/07 07:34:54;;;;;;;3.33;2.47;;;;;;;20.25;57.03;98703.98;1705606;83;21129;-41
2021/08/07 07:37:21;;;;;;;3.55;2.50;;;;;;;20.29;55.88;98705.41;1694395;84;21107;-42
2021/08/07 07:39:49;;;;;;;3.00;2.00;;;;;;;20.34;56.26;98709.02;1710382;83;21499;-42
2021/08/07 07:42:16;;;;;;;2.60;2.02;;;;;;;20.39;56.68;98700.81;1720840;83;21025;-42
2021/08/07 07:44:44;;;;;;;3.25;2.00;;;;;;;20.45;55.96;98699.05;1712989;82;21565;-42
2021/08/07 07:47:11;;;;;;;2.50;2.00;;;;;;;20.53;55.77;98714.13;1717936;82;21167;-42
2021/08/07 07:49:38;;;;;;;2.33;2.12;;;;;;;20.59;55.23;98700.58;1714997;83;21096;-42
2021/08/07 07:52:07;;;;;;;3.37;2.30;;;;;;;20.58;55.65;98699.03;1720955;83;21806;-42
2021/08/07 07:54:34;;;;;;;2.62;1.87;;;;;;;20.58;56.05;98699.03;1723139;83;21052;-42
2021/08/07 07:57:03;;;;;;;2.60;2.40;;;;;;;20.63;56.65;98701.23;1725966;83;21048;-42
2021/08/07 07:59:30;;;;;;;3.35;2.10;;;;;;;20.69;56.40;98703.00;1693143;82;21361;-42
2021/08/07 08:02:02;;;;;;;2.80;2.22;;;;;;;20.73;55.41;98701.50;1694305;84;21066;-42
2021/08/07 08:04:29;;;;;;;4.60;1.80;;;;;;;20.75;55.09;98712.25;1687841;83;21069;-42
2021/08/07 08:06:58;;;;;;;3.08;2.10;;;;;;;20.84;55.00;98718.45;1748911;80;21040;-42
2021/08/07 08:09:24;;;;;;;4.35;2.10;;;;;;;20.87;54.68;98714.80;1715876;82;21032;-42
2021/08/07 08:11:52;;;;;;;3.80;1.85;;;;;;;20.91;54.85;98722.38;1713861;82;21114;-41
2021/08/07 08:14:19;;;;;;;2.30;1.60;;;;;;;20.96;54.71;98718.28;1713975;83;21544;-42
2021/08/07 08:16:47;;;;;;;2.42;1.55;;;;;;;21.07;55.10;98718.06;1713151;83;21062;-42
2021/08/07 08:19:15;;;;;;;1.72;1.55;;;;;;;21.24;53.32;98710.45;1735145;82;21076;-42
2021/08/07 08:21:41;;;;;;;1.70;1.60;;;;;;;21.39;54.22;98710.12;1720342;82;21635;-42
2021/08/07 08:24:08;;;;;;;1.70;1.60;;;;;;;21.54;54.42;98709.00;1713450;82;22302;-42
2021/08/07 08:26:35;;;;;;;2.40;1.50;;;;;;;21.69;53.47;98708.62;1724284;82;21021;-42
2021/08/07 08:29:03;;;;;;;1.70;1.50;;;;;;;21.81;53.30;98702.28;1724369;82;21016;-42
2021/08/07 08:31:30;;;;;;;1.40;1.22;;;;;;;21.89;53.01;98703.55;1713354;83;21346;-42
2021/08/07 08:33:57;;;;;;;2.50;1.35;;;;;;;21.93;52.53;98706.97;1715988;82;20946;-42
2021/08/07 08:36:26;;;;;;;1.70;1.27;;;;;;;21.96;52.66;98706.69;1742878;82;21528;-42
2021/08/07 08:38:53;;;;;;;1.90;1.32;;;;;;;22.01;51.94;98708.25;1743010;82;21025;-42
2021/08/07 08:41:21;;;;;;;1.60;1.30;;;;;;;22.06;51.80;98704.91;1742968;82;21000;-42
2021/08/07 08:43:48;;;;;;;2.08;1.20;;;;;;;22.13;50.69;98711.36;1740881;82;20973;-42
2021/08/07 08:46:15;;;;;;;1.90;1.20;;;;;;;22.20;50.60;98711.10;1742917;82;20985;-42
2021/08/07 08:48:42;;;;;;;1.90;1.30;;;;;;;22.26;51.18;98710.67;1743049;82;21184;-42
2021/08/07 08:51:08;;;;;;;1.35;1.10;;;;;;;22.36;50.94;98717.78;1731289;82;21032;-42
2021/08/07 08:53:40;;;;;;;2.00;1.27;;;;;;;22.44;49.45;98721.80;1733939;82;21024;-42
2021/08/07 08:56:10;;;;;;;1.37;1.20;;;;;;;22.43;50.07;98718.87;1740966;82;20918;-42
2021/08/07 08:58:36;;;;;;;;;;;;;;;22.49;48.86;98721.20;1720325;82;21033;-42
2021/08/07 09:01:06;;;;;;;2.00;1.10;;;;;;;22.50;49.28;98718.60;1713390;83;21144;-42
2021/08/07 09:03:35;;;;;;;2.58;1.52;;;;;;;22.40;49.82;98716.41;1713550;83;21064;-43
2021/08/07 09:06:02;;;;;;;1.90;1.27;;;;;;;22.44;49.83;98717.65;1733848;82;21075;-42
2021/08/07 09:08:29;;;;;;;2.02;1.40;;;;;;;22.43;50.37;98725.16;1748264;82;21536;-42
2021/08/07 09:11:16;;;;;;;1.55;1.20;;;;;;;22.40;49.74;98724.70;1748757;82;21029;-42
2021/08/07 09:13:45;;;;;;;1.50;1.00;;;;;;;22.38;50.49;98722.22;1725002;82;21084;-42
2021/08/07 09:16:14;;;;;;;3.27;1.20;;;;;;;22.33;48.71;98726.34;1738818;82;20989;-42
2021/08/07 09:18:42;;;;;;;1.80;1.10;;;;;;;22.38;49.16;98733.27;1724790;82;20987;-42
2021/08/07 09:21:17;;;;;;;1.45;1.10;;;;;;;22.45;49.73;98737.92;1721015;82;20889;-42
2021/08/07 09:23:46;;;;;;;1.27;1.17;;;;;;;22.56;49.84;98732.59;1736915;82;20930;-42
2021/08/07 09:26:21;;;;;;;1.45;1.20;;;;;;;22.67;49.51;98742.58;1725048;82;21834;-42
2021/08/07 09:28:56;;;;;;;1.47;1.20;;;;;;;22.76;49.01;98739.88;1726579;82;21075;-42
2021/08/07 09:31:26;;;;;;;1.40;1.10;;;;;;;22.78;48.09;98736.05;1718980;82;21060;-42
2021/08/07 09:34:17;;;;;;;3.62;3.00;;;;;;;22.76;48.96;98735.12;1721296;82;21043;-42
2021/08/07 09:36:49;;;;;;;2.45;1.70;;;;;;;22.68;48.50;98733.08;1697394;82;21065;-42
2021/08/07 09:39:17;;;;;;;3.30;1.20;;;;;;;22.50;48.94;98735.95;1723886;80;21808;-42
2021/08/07 09:41:56;;;;;;;1.47;1.30;;;;;;;22.40;50.02;98747.41;1694862;82;20990;-42
2021/08/07 09:44:23;;;;;;;1.67;1.20;;;;;;;22.39;50.45;98744.48;1717327;82;21598;-42
2021/08/07 09:47:05;;;;;;;3.22;1.30;;;;;;;22.46;50.41;98738.69;1741329;82;21226;-42
2021/08/07 09:49:43;;;;;;;1.72;1.20;;;;;;;22.57;48.96;98742.39;1719243;82;21587;-42
2021/08/07 09:52:10;;;;;;;1.65;1.27;;;;;;;22.68;48.60;98737.99;1721200;82;21112;-42
2021/08/07 09:54:43;;;;;;;1.55;1.00;;;;;;;22.86;49.02;98749.13;1719287;82;20965;-43
2021/08/07 09:57:12;;;;;;;2.33;1.00;;;;;;;23.05;47.18;98746.39;1729733;82;20976;-42
2021/08/07 09:59:49;;;;;;;;;;;;;;;23.17;47.36;98743.51;1735524;81;20938;-42
2021/08/07 10:02:24;;;;;;;1.90;1.30;;;;;;;23.31;46.65;98751.20;1725707;82;20615;-42
2021/08/07 10:04:53;;;;;;;4.47;1.20;;;;;;;23.34;46.64;98746.13;1729332;82;21120;-43
2021/08/07 10:07:20;;;;;;;1.30;1.10;;;;;;;23.50;46.76;98752.61;1715567;82;20996;-42
2021/08/07 10:09:51;;;;;;;1.27;1.17;;;;;;;23.66;45.51;98746.17;1744726;82;20969;-42
2021/08/07 10:12:18;;;;;;;2.30;1.47;;;;;;;23.82;46.96;98748.59;1732865;82;21068;-43
2021/08/07 10:14:47;;;;;;;1.32;1.07;;;;;;;24.01;46.46;98747.20;1728901;82;21570;-43
2021/08/07 10:17:17;;;;;;;2.27;0.98;;;;;;;24.20;45.80;98748.10;1742555;82;23351;-43
2021/08/07 10:19:47;;;;;;;3.40;1.15;;;;;;;24.41;46.10;98754.63;1720574;82;20965;-42
2021/08/07 10:22:16;;;;;;;;;;;;;;;24.61;45.44;98741.63;1731866;82;21076;-43
2021/08/07 10:24:46;;;;;;;3.35;2.12;;;;;;;24.77;44.89;98738.47;1728184;82;20437;-43
2021/08/07 10:27:19;;;;;;;5.00;3.40;;;;;;;24.72;44.06;98746.05;1744265;82;21009;-43
2021/08/07 10:29:51;;;;;;;10.78;8.20;;;;;;;24.65;42.97;98747.14;1720391;81;21108;-43
2021/08/07 10:32:18;;;;;;;3.95;3.40;;;;;;;24.59;43.38;98749.02;1738918;82;21507;-42
2021/08/07 10:34:52;;;;;;;5.17;3.37;;;;;;;24.53;43.59;98752.30;1747827;82;20977;-43
2021/08/07 10:37:21;;;;;;;10.78;9.38;;;;;;;24.44;42.89;98763.41;1748769;82;21484;-42
2021/08/07 10:39:49;;;;;;;5.03;3.95;;;;;;;24.36;43.35;98758.03;1735319;82;21052;-43
2021/08/07 10:42:17;;;;;;;3.95;2.42;;;;;;;24.35;44.23;98759.27;1729140;82;21821;-43
2021/08/07 10:44:46;;;;;;;2.22;2.00;;;;;;;24.43;43.65;98756.95;1739416;82;20997;-43
2021/08/07 10:47:13;;;;;;;1.17;1.07;;;;;;;24.54;44.11;98773.84;1718867;83;21040;-43
2021/08/07 10:49:45;;;;;;;2.42;1.30;;;;;;;24.57;43.44;98769.52;1718914;83;21096;-43
2021/08/07 10:52:35;;;;;;;2.17;1.20;;;;;;;24.54;44.54;98773.23;1735129;82;20986;-42
2021/08/07 10:55:03;;;;;;;1.72;1.30;;;;;;;24.47;44.22;98766.63;1736759;82;21230;-43
2021/08/07 10:57:42;;;;;;;1.32;1.22;;;;;;;24.43;44.69;98772.19;1739168;82;20968;-43
2021/08/07 11:00:25;;;;;;;1.52;1.07;;;;;;;24.48;45.12;98775.70;1725343;82;21008;-42
2021/08/07 11:03:12;;;;;;;2.08;1.30;;;;;;;24.64;44.84;98769.16;1718841;83;20902;-43
2021/08/07 11:05:50;;;;;;;2.60;1.15;;;;;;;24.88;43.96;98769.26;1729340;82;21515;-43
2021/08/07 11:08:19;;;;;;;1.02;0.90;;;;;;;25.09;43.50;98773.73;1722747;82;21000;-42
2021/08/07 11:10:46;;;;;;;3.65;1.20;;;;;;;25.26;43.57;98777.50;1733947;82;21040;-43
2021/08/07 11:13:26;;;;;;;1.72;1.30;;;;;;;25.35;42.77;98779.59;1722384;82;21017;-43
2021/08/07 11:16:19;;;;;;;1.27;0.80;;;;;;;25.42;43.17;98768.11;1740256;82;21044;-43
2021/08/07 11:18:48;;;;;;;1.87;1.12;;;;;;;25.62;42.95;98769.53;1726789;82;20897;-43
2021/08/07 11:21:51;;;;;;;2.67;1.40;;;;;;;25.66;42.45;98768.75;1721382;82;21087;-43
2021/08/07 11:24:55;;;;;;;2.33;1.10;;;;;;;25.62;42.44;98774.47;1730118;82;20960;-43
2021/08/07 11:30:35;;;;;;;2.50;1.45;;;;;;;25.21;42.39;98783.70;1709759;82;20973;-43
2021/08/07 11:33:15;;;;;;;2.62;1.42;;;;;;;25.01;43.40;98793.36;1729836;82;21300;-43
2021/08/07 11:35:49;;;;;;;1.75;1.30;;;;;;;24.97;43.74;98798.32;1748887;82;21721;-43
2021/08/07 11:38:20;;;;;;;1.47;1.20;;;;;;;24.98;43.32;98793.55;1724974;82;21001;-43
2021/08/07 11:41:02;;;;;;;3.47;1.62;;;;;;;24.95;44.48;98809.72;1737965;82;21049;-43
2021/08/07 11:43:32;;;;;;;2.33;1.27;;;;;;;24.96;43.11;98804.33;1717424;82;21041;-42
2021/08/07 11:46:05;;;;;;;1.98;1.05;;;;;;;25.07;43.99;98800.42;1722442;82;21079;-43
2021/08/07 11:48:36;;;;;;;1.35;1.10;;;;;;;25.20;43.83;98802.34;1728649;82;21714;-43
2021/08/07 11:51:09;;;;;;;1.87;1.42;;;;;;;25.31;43.88;98804.59;1724647;82;21122;-43